sensor_id;sensor_type;location;lat;lon;timestamp;P1;durP1;ratioP1;P2;durP2;ratioP2
27231;SDS011;61835;50.196;6.454;2022-07-23T00:02:00;9.80;;;2.85;;
27231;SDS011;61835;50.196;6.454;2022-07-23T00:04:25;5.13;;;3.30;;
27231;SDS011;61835;50.196;6.454;2022-07-23T00:06:51;4.25;;;2.58;;
27231;SDS011;61835;50.196;6.454;2022-07-23T00:09:16;8.85;;;2.20;;
27231;SDS011;61835;50.196;6.454;2022-07-23T00:11:41;10.38;;;2.65;;
27231;SDS011;61835;50.196;6.454;2022-07-23T00:14:07;10.13;;;3.33;;
27231;SDS011;61835;50.196;6.454;2022-07-23T00:16:32;5.82;;;2.65;;
27231;SDS011;61835;50.196;6.454;2022-07-23T00:18:58;4.53;;;2.47;;
27231;SDS011;61835;50.196;6.454;2022-07-23T00:21:26;11.80;;;4.60;;
27231;SDS011;61835;50.196;6.454;2022-07-23T00:23:51;6.00;;;2.97;;
27231;SDS011;61835;50.196;6.454;2022-07-23T00:26:17;12.63;;;3.42;;
27231;SDS011;61835;50.196;6.454;2022-07-23T00:28:42;5.03;;;3.45;;
27231;SDS011;61835;50.196;6.454;2022-07-23T00:31:08;5.63;;;3.28;;
27231;SDS011;61835;50.196;6.454;2022-07-23T00:33:34;5.72;;;2.88;;
27231;SDS011;61835;50.196;6.454;2022-07-23T00:36:00;4.50;;;2.53;;
27231;SDS011;61835;50.196;6.454;2022-07-23T00:38:25;8.85;;;3.90;;
27231;SDS011;61835;50.196;6.454;2022-07-23T00:40:50;5.75;;;2.78;;
27231;SDS011;61835;50.196;6.454;2022-07-23T00:43:16;5.90;;;2.42;;
27231;SDS011;61835;50.196;6.454;2022-07-23T00:45:41;8.63;;;3.17;;
27231;SDS011;61835;50.196;6.454;2022-07-23T00:48:07;10.85;;;3.83;;
27231;SDS011;61835;50.196;6.454;2022-07-23T00:50:32;5.55;;;2.60;;
27231;SDS011;61835;50.196;6.454;2022-07-23T00:52:57;5.78;;;3.55;;
27231;SDS011;61835;50.196;6.454;2022-07-23T00:55:23;9.15;;;2.95;;
27231;SDS011;61835;50.196;6.454;2022-07-23T00:57:49;7.22;;;3.25;;
27231;SDS011;61835;50.196;6.454;2022-07-23T01:00:15;5.50;;;2.83;;
27231;SDS011;61835;50.196;6.454;2022-07-23T01:02:41;7.80;;;3.85;;
27231;SDS011;61835;50.196;6.454;2022-07-23T01:05:07;6.10;;;3.22;;
27231;SDS011;61835;50.196;6.454;2022-07-23T01:07:33;6.70;;;2.50;;
27231;SDS011;61835;50.196;6.454;2022-07-23T01:09:59;5.13;;;2.45;;
27231;SDS011;61835;50.196;6.454;2022-07-23T01:12:25;7.65;;;2.90;;
27231;SDS011;61835;50.196;6.454;2022-07-23T01:14:54;8.27;;;3.28;;
27231;SDS011;61835;50.196;6.454;2022-07-23T01:17:20;4.97;;;3.70;;
27231;SDS011;61835;50.196;6.454;2022-07-23T01:19:46;10.32;;;3.55;;
27231;SDS011;61835;50.196;6.454;2022-07-23T01:22:11;7.55;;;3.13;;
27231;SDS011;61835;50.196;6.454;2022-07-23T01:24:36;4.68;;;3.38;;
27231;SDS011;61835;50.196;6.454;2022-07-23T01:27:04;5.72;;;3.83;;
27231;SDS011;61835;50.196;6.454;2022-07-23T01:29:30;7.68;;;3.20;;
27231;SDS011;61835;50.196;6.454;2022-07-23T01:31:59;8.18;;;3.85;;
27231;SDS011;61835;50.196;6.454;2022-07-23T01:34:25;14.90;;;4.60;;
27231;SDS011;61835;50.196;6.454;2022-07-23T01:36:50;7.47;;;4.03;;
27231;SDS011;61835;50.196;6.454;2022-07-23T01:39:16;6.35;;;5.15;;
27231;SDS011;61835;50.196;6.454;2022-07-23T01:41:42;8.40;;;4.70;;
27231;SDS011;61835;50.196;6.454;2022-07-23T01:44:07;6.15;;;4.53;;
27231;SDS011;61835;50.196;6.454;2022-07-23T01:46:33;9.82;;;3.65;;
27231;SDS011;61835;50.196;6.454;2022-07-23T01:48:59;8.43;;;4.43;;
27231;SDS011;61835;50.196;6.454;2022-07-23T01:51:40;7.60;;;5.45;;
27231;SDS011;61835;50.196;6.454;2022-07-23T01:54:25;8.25;;;4.43;;
27231;SDS011;61835;50.196;6.454;2022-07-23T01:56:54;9.55;;;4.63;;
27231;SDS011;61835;50.196;6.454;2022-07-23T01:59:20;3.80;;;3.30;;
27231;SDS011;61835;50.196;6.454;2022-07-23T02:01:46;7.32;;;5.18;;
27231;SDS011;61835;50.196;6.454;2022-07-23T02:04:12;4.85;;;4.45;;
27231;SDS011;61835;50.196;6.454;2022-07-23T02:06:40;8.85;;;3.78;;
27231;SDS011;61835;50.196;6.454;2022-07-23T02:09:06;9.70;;;4.88;;
27231;SDS011;61835;50.196;6.454;2022-07-23T02:11:31;5.30;;;3.85;;
27231;SDS011;61835;50.196;6.454;2022-07-23T02:13:57;6.22;;;4.95;;
27231;SDS011;61835;50.196;6.454;2022-07-23T02:16:22;9.93;;;6.32;;
27231;SDS011;61835;50.196;6.454;2022-07-23T02:18:48;8.13;;;4.93;;
27231;SDS011;61835;50.196;6.454;2022-07-23T02:21:13;8.90;;;4.95;;
27231;SDS011;61835;50.196;6.454;2022-07-23T02:23:38;5.68;;;4.97;;
27231;SDS011;61835;50.196;6.454;2022-07-23T02:26:04;10.40;;;5.07;;
27231;SDS011;61835;50.196;6.454;2022-07-23T02:28:29;8.07;;;6.07;;
27231;SDS011;61835;50.196;6.454;2022-07-23T02:30:55;7.05;;;4.03;;
27231;SDS011;61835;50.196;6.454;2022-07-23T02:33:21;7.00;;;4.05;;
27231;SDS011;61835;50.196;6.454;2022-07-23T02:35:47;6.28;;;4.18;;
27231;SDS011;61835;50.196;6.454;2022-07-23T02:38:12;5.05;;;3.83;;
27231;SDS011;61835;50.196;6.454;2022-07-23T02:40:38;7.25;;;5.50;;
27231;SDS011;61835;50.196;6.454;2022-07-23T02:43:03;13.60;;;6.63;;
27231;SDS011;61835;50.196;6.454;2022-07-23T02:45:29;7.47;;;3.95;;
27231;SDS011;61835;50.196;6.454;2022-07-23T02:47:54;8.55;;;4.78;;
27231;SDS011;61835;50.196;6.454;2022-07-23T02:50:20;8.55;;;4.78;;
27231;SDS011;61835;50.196;6.454;2022-07-23T02:52:45;4.00;;;3.60;;
27231;SDS011;61835;50.196;6.454;2022-07-23T02:55:11;17.25;;;6.32;;
27231;SDS011;61835;50.196;6.454;2022-07-23T02:57:36;5.85;;;4.95;;
27231;SDS011;61835;50.196;6.454;2022-07-23T03:00:03;5.47;;;4.30;;
27231;SDS011;61835;50.196;6.454;2022-07-23T03:02:30;6.60;;;4.68;;
27231;SDS011;61835;50.196;6.454;2022-07-23T03:04:55;9.43;;;4.55;;
27231;SDS011;61835;50.196;6.454;2022-07-23T03:07:21;8.07;;;4.90;;
27231;SDS011;61835;50.196;6.454;2022-07-23T03:09:47;8.85;;;5.55;;
27231;SDS011;61835;50.196;6.454;2022-07-23T03:12:13;7.55;;;4.85;;
27231;SDS011;61835;50.196;6.454;2022-07-23T03:14:38;8.73;;;6.07;;
27231;SDS011;61835;50.196;6.454;2022-07-23T03:17:05;5.65;;;4.22;;
27231;SDS011;61835;50.196;6.454;2022-07-23T03:19:30;6.10;;;4.30;;
27231;SDS011;61835;50.196;6.454;2022-07-23T03:21:56;12.52;;;4.97;;
27231;SDS011;61835;50.196;6.454;2022-07-23T03:24:22;9.48;;;4.28;;
27231;SDS011;61835;50.196;6.454;2022-07-23T03:26:49;7.10;;;5.45;;
27231;SDS011;61835;50.196;6.454;2022-07-23T03:29:15;6.55;;;4.35;;
27231;SDS011;61835;50.196;6.454;2022-07-23T03:31:41;10.65;;;5.43;;
27231;SDS011;61835;50.196;6.454;2022-07-23T03:34:07;14.18;;;5.30;;
27231;SDS011;61835;50.196;6.454;2022-07-23T03:36:32;10.65;;;5.13;;
27231;SDS011;61835;50.196;6.454;2022-07-23T03:38:59;7.68;;;5.15;;
27231;SDS011;61835;50.196;6.454;2022-07-23T03:41:24;9.60;;;5.22;;
27231;SDS011;61835;50.196;6.454;2022-07-23T03:43:50;10.65;;;5.40;;
27231;SDS011;61835;50.196;6.454;2022-07-23T03:46:15;14.35;;;5.72;;
27231;SDS011;61835;50.196;6.454;2022-07-23T03:48:41;6.20;;;5.07;;
27231;SDS011;61835;50.196;6.454;2022-07-23T03:51:06;11.80;;;5.88;;
27231;SDS011;61835;50.196;6.454;2022-07-23T03:53:32;6.57;;;4.30;;
27231;SDS011;61835;50.196;6.454;2022-07-23T03:55:58;4.63;;;3.92;;
27231;SDS011;61835;50.196;6.454;2022-07-23T03:58:24;8.27;;;4.68;;
27231;SDS011;61835;50.196;6.454;2022-07-23T04:00:50;9.35;;;4.82;;
27231;SDS011;61835;50.196;6.454;2022-07-23T04:03:16;13.80;;;6.40;;
27231;SDS011;61835;50.196;6.454;2022-07-23T04:05:42;7.78;;;4.57;;
27231;SDS011;61835;50.196;6.454;2022-07-23T04:08:11;11.35;;;4.10;;
27231;SDS011;61835;50.196;6.454;2022-07-23T04:10:39;7.22;;;5.15;;
27231;SDS011;61835;50.196;6.454;2022-07-23T04:13:06;8.32;;;6.38;;
27231;SDS011;61835;50.196;6.454;2022-07-23T04:15:32;5.50;;;3.85;;
27231;SDS011;61835;50.196;6.454;2022-07-23T04:17:57;7.20;;;5.13;;
27231;SDS011;61835;50.196;6.454;2022-07-23T04:20:29;10.38;;;5.20;;
27231;SDS011;61835;50.196;6.454;2022-07-23T04:22:58;7.93;;;3.75;;
27231;SDS011;61835;50.196;6.454;2022-07-23T04:25:24;9.65;;;5.05;;
27231;SDS011;61835;50.196;6.454;2022-07-23T04:27:49;9.23;;;5.75;;
27231;SDS011;61835;50.196;6.454;2022-07-23T04:30:15;6.32;;;5.72;;
27231;SDS011;61835;50.196;6.454;2022-07-23T04:32:40;7.38;;;5.07;;
27231;SDS011;61835;50.196;6.454;2022-07-23T04:35:13;12.13;;;4.97;;
27231;SDS011;61835;50.196;6.454;2022-07-23T04:37:38;8.65;;;4.90;;
27231;SDS011;61835;50.196;6.454;2022-07-23T04:40:04;9.13;;;4.75;;
27231;SDS011;61835;50.196;6.454;2022-07-23T04:42:30;12.52;;;4.93;;
27231;SDS011;61835;50.196;6.454;2022-07-23T04:44:55;6.63;;;4.18;;
27231;SDS011;61835;50.196;6.454;2022-07-23T04:47:21;9.48;;;5.40;;
27231;SDS011;61835;50.196;6.454;2022-07-23T04:49:46;13.00;;;5.63;;
27231;SDS011;61835;50.196;6.454;2022-07-23T04:52:11;11.40;;;5.32;;
27231;SDS011;61835;50.196;6.454;2022-07-23T04:54:37;7.82;;;5.05;;
27231;SDS011;61835;50.196;6.454;2022-07-23T04:57:02;5.65;;;3.97;;
27231;SDS011;61835;50.196;6.454;2022-07-23T04:59:28;7.65;;;5.68;;
27231;SDS011;61835;50.196;6.454;2022-07-23T05:01:58;14.30;;;5.05;;
27231;SDS011;61835;50.196;6.454;2022-07-23T05:04:24;8.35;;;4.97;;
27231;SDS011;61835;50.196;6.454;2022-07-23T05:06:51;14.45;;;5.72;;
27231;SDS011;61835;50.196;6.454;2022-07-23T05:09:16;6.75;;;3.38;;
27231;SDS011;61835;50.196;6.454;2022-07-23T05:11:42;7.05;;;5.22;;
27231;SDS011;61835;50.196;6.454;2022-07-23T05:14:07;3.78;;;3.35;;
27231;SDS011;61835;50.196;6.454;2022-07-23T05:16:33;8.65;;;3.25;;
27231;SDS011;61835;50.196;6.454;2022-07-23T05:19:02;6.57;;;4.10;;
27231;SDS011;61835;50.196;6.454;2022-07-23T05:21:30;10.27;;;4.63;;
27231;SDS011;61835;50.196;6.454;2022-07-23T05:23:55;13.55;;;6.95;;
27231;SDS011;61835;50.196;6.454;2022-07-23T05:26:21;10.40;;;5.05;;
27231;SDS011;61835;50.196;6.454;2022-07-23T05:28:46;6.47;;;4.13;;
27231;SDS011;61835;50.196;6.454;2022-07-23T05:31:12;6.80;;;4.85;;
27231;SDS011;61835;50.196;6.454;2022-07-23T05:33:37;9.68;;;5.25;;
27231;SDS011;61835;50.196;6.454;2022-07-23T05:36:03;6.13;;;3.78;;
27231;SDS011;61835;50.196;6.454;2022-07-23T05:38:31;9.82;;;5.10;;
27231;SDS011;61835;50.196;6.454;2022-07-23T05:40:58;6.40;;;4.70;;
27231;SDS011;61835;50.196;6.454;2022-07-23T05:43:25;5.97;;;5.22;;
27231;SDS011;61835;50.196;6.454;2022-07-23T05:45:51;8.85;;;6.07;;
27231;SDS011;61835;50.196;6.454;2022-07-23T05:48:16;10.18;;;5.85;;
27231;SDS011;61835;50.196;6.454;2022-07-23T05:51:00;5.97;;;4.28;;
27231;SDS011;61835;50.196;6.454;2022-07-23T05:53:33;9.02;;;4.22;;
27231;SDS011;61835;50.196;6.454;2022-07-23T05:56:03;11.55;;;3.88;;
27231;SDS011;61835;50.196;6.454;2022-07-23T05:58:30;8.90;;;4.55;;
27231;SDS011;61835;50.196;6.454;2022-07-23T06:00:55;9.88;;;5.47;;
27231;SDS011;61835;50.196;6.454;2022-07-23T06:03:21;9.45;;;5.28;;
27231;SDS011;61835;50.196;6.454;2022-07-23T06:05:46;10.75;;;4.95;;
27231;SDS011;61835;50.196;6.454;2022-07-23T06:08:12;8.85;;;5.65;;
27231;SDS011;61835;50.196;6.454;2022-07-23T06:10:37;12.32;;;5.85;;
27231;SDS011;61835;50.196;6.454;2022-07-23T06:13:03;11.57;;;6.07;;
27231;SDS011;61835;50.196;6.454;2022-07-23T06:15:29;9.15;;;4.90;;
27231;SDS011;61835;50.196;6.454;2022-07-23T06:17:55;5.25;;;3.22;;
27231;SDS011;61835;50.196;6.454;2022-07-23T06:20:21;6.10;;;4.05;;
27231;SDS011;61835;50.196;6.454;2022-07-23T06:22:47;5.57;;;2.90;;
27231;SDS011;61835;50.196;6.454;2022-07-23T06:25:12;9.10;;;3.22;;
27231;SDS011;61835;50.196;6.454;2022-07-23T06:27:38;4.82;;;2.28;;
27231;SDS011;61835;50.196;6.454;2022-07-23T06:30:03;7.03;;;2.45;;
27231;SDS011;61835;50.196;6.454;2022-07-23T06:32:29;4.55;;;2.95;;
27231;SDS011;61835;50.196;6.454;2022-07-23T06:34:54;7.03;;;2.75;;
27231;SDS011;61835;50.196;6.454;2022-07-23T06:37:20;6.18;;;2.25;;
27231;SDS011;61835;50.196;6.454;2022-07-23T06:39:45;7.97;;;1.88;;
27231;SDS011;61835;50.196;6.454;2022-07-23T06:42:11;7.63;;;2.33;;
27231;SDS011;61835;50.196;6.454;2022-07-23T06:44:41;10.45;;;2.08;;
27231;SDS011;61835;50.196;6.454;2022-07-23T06:47:07;5.72;;;1.90;;
27231;SDS011;61835;50.196;6.454;2022-07-23T06:49:33;9.98;;;2.85;;
27231;SDS011;61835;50.196;6.454;2022-07-23T06:51:58;2.88;;;1.73;;
27231;SDS011;61835;50.196;6.454;2022-07-23T06:54:23;4.72;;;1.83;;
27231;SDS011;61835;50.196;6.454;2022-07-23T06:56:49;7.15;;;2.30;;
27231;SDS011;61835;50.196;6.454;2022-07-23T06:59:15;6.18;;;1.88;;
27231;SDS011;61835;50.196;6.454;2022-07-23T07:01:41;5.32;;;2.45;;
27231;SDS011;61835;50.196;6.454;2022-07-23T07:04:07;4.28;;;1.77;;
27231;SDS011;61835;50.196;6.454;2022-07-23T07:06:32;2.47;;;1.58;;
27231;SDS011;61835;50.196;6.454;2022-07-23T07:08:57;3.28;;;1.48;;
27231;SDS011;61835;50.196;6.454;2022-07-23T07:11:23;2.80;;;1.15;;
27231;SDS011;61835;50.196;6.454;2022-07-23T07:13:50;7.47;;;1.67;;
27231;SDS011;61835;50.196;6.454;2022-07-23T07:16:16;5.47;;;1.30;;
27231;SDS011;61835;50.196;6.454;2022-07-23T07:18:41;4.28;;;2.28;;
27231;SDS011;61835;50.196;6.454;2022-07-23T07:21:06;2.28;;;1.33;;
27231;SDS011;61835;50.196;6.454;2022-07-23T07:23:32;2.65;;;2.05;;
27231;SDS011;61835;50.196;6.454;2022-07-23T07:25:57;4.90;;;1.17;;
27231;SDS011;61835;50.196;6.454;2022-07-23T07:28:23;5.32;;;2.10;;
27231;SDS011;61835;50.196;6.454;2022-07-23T07:30:48;3.95;;;1.30;;
27231;SDS011;61835;50.196;6.454;2022-07-23T07:33:13;5.80;;;1.40;;
27231;SDS011;61835;50.196;6.454;2022-07-23T07:35:39;8.07;;;2.35;;
27231;SDS011;61835;50.196;6.454;2022-07-23T07:38:04;5.85;;;1.02;;
27231;SDS011;61835;50.196;6.454;2022-07-23T07:40:30;2.05;;;0.80;;
27231;SDS011;61835;50.196;6.454;2022-07-23T07:42:55;4.38;;;1.35;;
27231;SDS011;61835;50.196;6.454;2022-07-23T07:45:23;3.47;;;1.27;;
27231;SDS011;61835;50.196;6.454;2022-07-23T07:47:50;3.28;;;1.23;;
27231;SDS011;61835;50.196;6.454;2022-07-23T07:50:17;3.83;;;1.52;;
27231;SDS011;61835;50.196;6.454;2022-07-23T07:52:43;3.00;;;1.17;;
27231;SDS011;61835;50.196;6.454;2022-07-23T07:55:09;3.38;;;1.63;;
27231;SDS011;61835;50.196;6.454;2022-07-23T07:57:35;2.15;;;0.93;;
27231;SDS011;61835;50.196;6.454;2022-07-23T08:00:01;3.33;;;1.20;;
27231;SDS011;61835;50.196;6.454;2022-07-23T08:02:41;2.10;;;0.77;;
27231;SDS011;61835;50.196;6.454;2022-07-23T08:05:10;3.78;;;0.43;;
27231;SDS011;61835;50.196;6.454;2022-07-23T08:07:36;2.08;;;1.02;;
27231;SDS011;61835;50.196;6.454;2022-07-23T08:10:03;2.63;;;0.95;;
27231;SDS011;61835;50.196;6.454;2022-07-23T08:12:37;4.25;;;0.68;;
27231;SDS011;61835;50.196;6.454;2022-07-23T08:15:13;0.88;;;0.50;;
27231;SDS011;61835;50.196;6.454;2022-07-23T08:17:41;1.63;;;0.57;;
27231;SDS011;61835;50.196;6.454;2022-07-23T08:20:08;1.67;;;0.70;;
27231;SDS011;61835;50.196;6.454;2022-07-23T08:25:14;4.53;;;1.45;;
27231;SDS011;61835;50.196;6.454;2022-07-23T08:27:41;2.67;;;0.98;;
27231;SDS011;61835;50.196;6.454;2022-07-23T08:30:06;1.70;;;0.70;;
27231;SDS011;61835;50.196;6.454;2022-07-23T08:32:32;1.58;;;0.80;;
27231;SDS011;61835;50.196;6.454;2022-07-23T08:34:58;3.47;;;0.95;;
27231;SDS011;61835;50.196;6.454;2022-07-23T08:37:23;1.40;;;0.60;;
27231;SDS011;61835;50.196;6.454;2022-07-23T08:39:49;2.42;;;1.27;;
27231;SDS011;61835;50.196;6.454;2022-07-23T08:42:14;0.93;;;0.68;;
27231;SDS011;61835;50.196;6.454;2022-07-23T08:44:44;2.72;;;0.95;;
27231;SDS011;61835;50.196;6.454;2022-07-23T08:47:11;2.92;;;1.17;;
27231;SDS011;61835;50.196;6.454;2022-07-23T08:49:37;5.78;;;1.42;;
27231;SDS011;61835;50.196;6.454;2022-07-23T08:52:04;3.85;;;0.80;;
27231;SDS011;61835;50.196;6.454;2022-07-23T08:54:31;3.30;;;1.33;;
27231;SDS011;61835;50.196;6.454;2022-07-23T08:56:56;2.15;;;0.82;;
27231;SDS011;61835;50.196;6.454;2022-07-23T08:59:22;2.55;;;0.90;;
27231;SDS011;61835;50.196;6.454;2022-07-23T09:01:47;3.25;;;1.33;;
27231;SDS011;61835;50.196;6.454;2022-07-23T09:04:13;2.03;;;0.75;;
27231;SDS011;61835;50.196;6.454;2022-07-23T09:06:38;2.00;;;1.10;;
27231;SDS011;61835;50.196;6.454;2022-07-23T09:09:20;3.15;;;1.33;;
27231;SDS011;61835;50.196;6.454;2022-07-23T09:11:46;1.30;;;0.80;;
27231;SDS011;61835;50.196;6.454;2022-07-23T09:14:13;1.95;;;1.25;;
27231;SDS011;61835;50.196;6.454;2022-07-23T09:16:38;3.08;;;1.10;;
27231;SDS011;61835;50.196;6.454;2022-07-23T09:19:05;1.92;;;1.00;;
27231;SDS011;61835;50.196;6.454;2022-07-23T09:21:32;2.47;;;0.98;;
27231;SDS011;61835;50.196;6.454;2022-07-23T09:24:06;1.63;;;0.70;;
27231;SDS011;61835;50.196;6.454;2022-07-23T09:26:35;2.00;;;0.68;;
27231;SDS011;61835;50.196;6.454;2022-07-23T09:29:15;9.05;;;1.17;;
27231;SDS011;61835;50.196;6.454;2022-07-23T09:37:15;2.50;;;1.45;;
27231;SDS011;61835;50.196;6.454;2022-07-23T09:39:43;5.35;;;1.10;;
27231;SDS011;61835;50.196;6.454;2022-07-23T09:42:13;2.95;;;1.10;;
27231;SDS011;61835;50.196;6.454;2022-07-23T09:44:41;6.60;;;1.05;;
27231;SDS011;61835;50.196;6.454;2022-07-23T09:47:07;1.85;;;0.80;;
27231;SDS011;61835;50.196;6.454;2022-07-23T09:49:33;4.10;;;1.33;;
27231;SDS011;61835;50.196;6.454;2022-07-23T09:51:59;1.75;;;0.73;;
27231;SDS011;61835;50.196;6.454;2022-07-23T09:54:33;2.33;;;0.90;;
27231;SDS011;61835;50.196;6.454;2022-07-23T09:57:07;4.55;;;1.77;;
27231;SDS011;61835;50.196;6.454;2022-07-23T09:59:39;6.63;;;1.20;;
27231;SDS011;61835;50.196;6.454;2022-07-23T10:02:05;3.08;;;1.67;;
27231;SDS011;61835;50.196;6.454;2022-07-23T10:04:42;2.33;;;0.80;;
27231;SDS011;61835;50.196;6.454;2022-07-23T10:07:17;3.63;;;1.38;;
27231;SDS011;61835;50.196;6.454;2022-07-23T10:10:06;2.53;;;1.13;;
27231;SDS011;61835;50.196;6.454;2022-07-23T10:13:05;2.40;;;0.90;;
27231;SDS011;61835;50.196;6.454;2022-07-23T10:15:44;2.28;;;0.93;;
27231;SDS011;61835;50.196;6.454;2022-07-23T10:18:10;2.42;;;1.13;;
27231;SDS011;61835;50.196;6.454;2022-07-23T10:20:37;3.95;;;1.48;;
27231;SDS011;61835;50.196;6.454;2022-07-23T10:23:11;2.25;;;0.75;;
27231;SDS011;61835;50.196;6.454;2022-07-23T10:31:38;2.60;;;0.85;;
27231;SDS011;61835;50.196;6.454;2022-07-23T10:42:11;1.38;;;0.77;;
27231;SDS011;61835;50.196;6.454;2022-07-23T10:44:46;4.10;;;0.80;;
27231;SDS011;61835;50.196;6.454;2022-07-23T10:49:54;1.65;;;0.80;;
27231;SDS011;61835;50.196;6.454;2022-07-23T10:52:42;2.58;;;1.48;;
27231;SDS011;61835;50.196;6.454;2022-07-23T10:57:56;1.95;;;1.00;;
27231;SDS011;61835;50.196;6.454;2022-07-23T11:00:25;1.85;;;0.80;;
27231;SDS011;61835;50.196;6.454;2022-07-23T11:02:54;3.75;;;1.42;;
27231;SDS011;61835;50.196;6.454;2022-07-23T11:05:40;3.50;;;1.15;;
27231;SDS011;61835;50.196;6.454;2022-07-23T11:10:36;4.70;;;1.80;;
27231;SDS011;61835;50.196;6.454;2022-07-23T11:34:36;6.25;;;1.52;;
27231;SDS011;61835;50.196;6.454;2022-07-23T11:37:06;1.98;;;0.70;;
27231;SDS011;61835;50.196;6.454;2022-07-23T11:39:33;3.08;;;1.17;;
27231;SDS011;61835;50.196;6.454;2022-07-23T11:41:59;1.00;;;0.70;;
27231;SDS011;61835;50.196;6.454;2022-07-23T11:44:26;3.38;;;1.00;;
27231;SDS011;61835;50.196;6.454;2022-07-23T11:47:01;2.17;;;0.77;;
27231;SDS011;61835;50.196;6.454;2022-07-23T11:49:27;2.88;;;1.15;;
27231;SDS011;61835;50.196;6.454;2022-07-23T11:54:32;2.30;;;0.90;;
27231;SDS011;61835;50.196;6.454;2022-07-23T11:56:58;1.27;;;0.60;;
27231;SDS011;61835;50.196;6.454;2022-07-23T11:59:25;2.17;;;0.80;;
27231;SDS011;61835;50.196;6.454;2022-07-23T12:01:57;2.15;;;0.95;;
27231;SDS011;61835;50.196;6.454;2022-07-23T12:07:04;4.10;;;1.13;;
27231;SDS011;61835;50.196;6.454;2022-07-23T12:09:47;7.70;;;1.27;;
27231;SDS011;61835;50.196;6.454;2022-07-23T12:12:12;1.50;;;0.70;;
27231;SDS011;61835;50.196;6.454;2022-07-23T12:14:46;2.22;;;0.98;;
27231;SDS011;61835;50.196;6.454;2022-07-23T12:17:20;2.13;;;0.70;;
27231;SDS011;61835;50.196;6.454;2022-07-23T12:19:46;3.40;;;1.10;;
27231;SDS011;61835;50.196;6.454;2022-07-23T12:22:12;3.65;;;1.38;;
27231;SDS011;61835;50.196;6.454;2022-07-23T12:24:58;2.65;;;1.50;;
27231;SDS011;61835;50.196;6.454;2022-07-23T12:27:25;4.65;;;0.93;;
27231;SDS011;61835;50.196;6.454;2022-07-23T12:29:51;1.90;;;1.00;;
27231;SDS011;61835;50.196;6.454;2022-07-23T12:32:24;4.30;;;0.98;;
27231;SDS011;61835;50.196;6.454;2022-07-23T12:35:10;1.60;;;0.90;;
27231;SDS011;61835;50.196;6.454;2022-07-23T12:37:36;2.03;;;1.20;;
27231;SDS011;61835;50.196;6.454;2022-07-23T12:42:51;2.08;;;1.40;;
27231;SDS011;61835;50.196;6.454;2022-07-23T12:45:22;3.83;;;1.70;;
27231;SDS011;61835;50.196;6.454;2022-07-23T12:48:04;2.13;;;1.15;;
27231;SDS011;61835;50.196;6.454;2022-07-23T12:53:11;1.77;;;0.75;;
27231;SDS011;61835;50.196;6.454;2022-07-23T12:55:40;2.72;;;1.23;;
27231;SDS011;61835;50.196;6.454;2022-07-23T12:58:07;2.03;;;1.15;;
27231;SDS011;61835;50.196;6.454;2022-07-23T13:00:50;2.40;;;1.50;;
27231;SDS011;61835;50.196;6.454;2022-07-23T13:06:02;2.10;;;0.95;;
27231;SDS011;61835;50.196;6.454;2022-07-23T13:08:30;1.15;;;0.60;;
27231;SDS011;61835;50.196;6.454;2022-07-23T13:10:56;3.65;;;1.27;;
27231;SDS011;61835;50.196;6.454;2022-07-23T13:13:28;2.13;;;0.85;;
27231;SDS011;61835;50.196;6.454;2022-07-23T13:15:54;2.38;;;0.88;;
27231;SDS011;61835;50.196;6.454;2022-07-23T13:18:20;2.55;;;1.17;;
27231;SDS011;61835;50.196;6.454;2022-07-23T13:20:47;2.63;;;1.08;;
27231;SDS011;61835;50.196;6.454;2022-07-23T13:23:13;3.05;;;1.00;;
27231;SDS011;61835;50.196;6.454;2022-07-23T13:25:39;6.95;;;1.63;;
27231;SDS011;61835;50.196;6.454;2022-07-23T13:28:05;3.47;;;1.33;;
27231;SDS011;61835;50.196;6.454;2022-07-23T13:30:30;2.65;;;1.27;;
27231;SDS011;61835;50.196;6.454;2022-07-23T13:32:56;3.40;;;0.70;;
27231;SDS011;61835;50.196;6.454;2022-07-23T13:35:21;4.18;;;1.77;;
27231;SDS011;61835;50.196;6.454;2022-07-23T13:37:47;2.30;;;1.00;;
27231;SDS011;61835;50.196;6.454;2022-07-23T13:40:12;2.38;;;1.00;;
27231;SDS011;61835;50.196;6.454;2022-07-23T13:42:38;2.13;;;1.10;;
27231;SDS011;61835;50.196;6.454;2022-07-23T13:45:04;2.55;;;1.15;;
27231;SDS011;61835;50.196;6.454;2022-07-23T13:47:31;2.13;;;0.95;;
27231;SDS011;61835;50.196;6.454;2022-07-23T13:49:56;4.47;;;1.20;;
27231;SDS011;61835;50.196;6.454;2022-07-23T13:52:22;5.57;;;0.90;;
27231;SDS011;61835;50.196;6.454;2022-07-23T13:54:47;4.20;;;0.70;;
27231;SDS011;61835;50.196;6.454;2022-07-23T13:57:13;1.65;;;0.95;;
27231;SDS011;61835;50.196;6.454;2022-07-23T13:59:38;1.58;;;0.88;;
27231;SDS011;61835;50.196;6.454;2022-07-23T14:02:04;2.35;;;0.88;;
27231;SDS011;61835;50.196;6.454;2022-07-23T14:04:30;5.65;;;1.00;;
27231;SDS011;61835;50.196;6.454;2022-07-23T14:06:56;1.23;;;0.70;;
27231;SDS011;61835;50.196;6.454;2022-07-23T14:09:21;2.35;;;0.95;;
27231;SDS011;61835;50.196;6.454;2022-07-23T14:11:47;3.38;;;0.82;;
27231;SDS011;61835;50.196;6.454;2022-07-23T14:14:13;1.90;;;0.85;;
27231;SDS011;61835;50.196;6.454;2022-07-23T14:16:38;1.23;;;0.60;;
27231;SDS011;61835;50.196;6.454;2022-07-23T14:19:04;2.85;;;0.93;;
27231;SDS011;61835;50.196;6.454;2022-07-23T14:21:29;4.22;;;1.30;;
27231;SDS011;61835;50.196;6.454;2022-07-23T14:23:54;2.78;;;1.10;;
27231;SDS011;61835;50.196;6.454;2022-07-23T14:26:20;3.85;;;1.10;;
27231;SDS011;61835;50.196;6.454;2022-07-23T14:28:46;1.35;;;0.63;;
27231;SDS011;61835;50.196;6.454;2022-07-23T14:31:11;2.33;;;1.70;;
27231;SDS011;61835;50.196;6.454;2022-07-23T14:33:36;2.25;;;0.77;;
27231;SDS011;61835;50.196;6.454;2022-07-23T14:36:02;1.92;;;0.88;;
27231;SDS011;61835;50.196;6.454;2022-07-23T14:38:28;2.20;;;1.10;;
27231;SDS011;61835;50.196;6.454;2022-07-23T14:40:55;2.30;;;0.93;;
27231;SDS011;61835;50.196;6.454;2022-07-23T14:43:21;2.08;;;0.73;;
27231;SDS011;61835;50.196;6.454;2022-07-23T14:45:46;2.33;;;1.13;;
27231;SDS011;61835;50.196;6.454;2022-07-23T14:48:12;1.98;;;0.77;;
27231;SDS011;61835;50.196;6.454;2022-07-23T14:50:37;3.47;;;0.98;;
27231;SDS011;61835;50.196;6.454;2022-07-23T14:53:03;3.13;;;1.00;;
27231;SDS011;61835;50.196;6.454;2022-07-23T14:55:30;1.40;;;0.70;;
27231;SDS011;61835;50.196;6.454;2022-07-23T14:57:56;1.67;;;0.88;;
27231;SDS011;61835;50.196;6.454;2022-07-23T15:00:21;3.05;;;1.10;;
27231;SDS011;61835;50.196;6.454;2022-07-23T15:02:47;1.10;;;0.57;;
27231;SDS011;61835;50.196;6.454;2022-07-23T15:05:12;2.92;;;1.30;;
27231;SDS011;61835;50.196;6.454;2022-07-23T15:07:37;2.03;;;0.98;;
27231;SDS011;61835;50.196;6.454;2022-07-23T15:10:03;1.65;;;0.73;;
27231;SDS011;61835;50.196;6.454;2022-07-23T15:12:29;1.30;;;0.65;;
27231;SDS011;61835;50.196;6.454;2022-07-23T15:14:54;1.40;;;0.60;;
27231;SDS011;61835;50.196;6.454;2022-07-23T15:17:19;2.45;;;1.05;;
27231;SDS011;61835;50.196;6.454;2022-07-23T15:19:45;1.85;;;1.05;;
27231;SDS011;61835;50.196;6.454;2022-07-23T15:22:10;1.73;;;1.02;;
27231;SDS011;61835;50.196;6.454;2022-07-23T15:24:35;1.05;;;0.50;;
27231;SDS011;61835;50.196;6.454;2022-07-23T15:27:01;4.68;;;1.15;;
27231;SDS011;61835;50.196;6.454;2022-07-23T15:29:26;3.60;;;1.05;;
27231;SDS011;61835;50.196;6.454;2022-07-23T15:31:52;1.52;;;0.80;;
27231;SDS011;61835;50.196;6.454;2022-07-23T15:34:17;4.28;;;1.50;;
27231;SDS011;61835;50.196;6.454;2022-07-23T15:36:42;1.67;;;0.70;;
27231;SDS011;61835;50.196;6.454;2022-07-23T15:39:08;2.28;;;1.08;;
27231;SDS011;61835;50.196;6.454;2022-07-23T15:41:33;1.45;;;0.90;;
27231;SDS011;61835;50.196;6.454;2022-07-23T15:43:59;1.77;;;0.77;;
27231;SDS011;61835;50.196;6.454;2022-07-23T15:46:25;1.42;;;1.02;;
27231;SDS011;61835;50.196;6.454;2022-07-23T15:48:50;10.77;;;2.78;;
27231;SDS011;61835;50.196;6.454;2022-07-23T15:51:16;1.65;;;1.13;;